Eastonville, Colorado
Current Conditions -  °F | °C
As of 5:56 AM on Thursday 27 Nov 2014 (Local Time) from KSHM Reporting Station
Broken Clouds Broken Clouds  
Wind Chill: 37°   Ceiling: 21000
Heat Index: 37°   Visibility: 10mi
Dew Point: 16°   Wind: 2mph
Humidity: 43%   Direction: NA
Pressure: 30.28"   Gusts: NA
Location:  39.0051°N, 104.503°W
Report Text: KSHM 271256Z AUTO VRB02KT 10SM BKN210 03/M09 A3028 RMK AO2 SLP288 T00271087
Loading
Personal Weather Stations






























Interactive Weather Map New forecast layout! Learn more

10-Day Weather Forecast

Advertisements
Track Severe Weather on mobile